createdAt,value
2022-12-09T00:03:58.410Z,0.10
2022-12-09T00:09:00.617Z,0.00
2022-12-09T00:14:02.732Z,-0.10
2022-12-09T00:19:04.787Z,0.00
2022-12-09T00:24:08.024Z,0.00
2022-12-09T00:29:11.368Z,-0.10
2022-12-09T00:34:14.731Z,-0.20
2022-12-09T00:39:16.821Z,-0.30
2022-12-09T00:44:19.158Z,-0.20
2022-12-09T00:49:21.292Z,-0.20
2022-12-09T00:54:23.106Z,-0.30
2022-12-09T00:59:26.031Z,-0.40
2022-12-09T01:04:28.313Z,-0.30
2022-12-09T01:09:30.328Z,-0.30
2022-12-09T01:14:32.470Z,-0.30
2022-12-09T01:19:34.457Z,-0.30
2022-12-09T01:24:36.829Z,-0.40
2022-12-09T01:29:38.885Z,-0.60
2022-12-09T01:34:40.953Z,-0.60
2022-12-09T01:39:43.833Z,-0.70
2022-12-09T01:45:19.873Z,-0.60
2022-12-09T01:50:22.170Z,-0.90
2022-12-09T01:55:25.264Z,-0.90
2022-12-09T02:00:27.503Z,-0.80
2022-12-09T02:05:32.660Z,-0.80
2022-12-09T02:10:37.088Z,-0.80
2022-12-09T02:15:50.345Z,-0.80
2022-12-09T02:21:05.746Z,-0.80
2022-12-09T02:26:24.174Z,-0.70
2022-12-09T02:32:06.859Z,-0.70
2022-12-09T02:37:20.898Z,-0.70
2022-12-09T02:42:32.394Z,-0.60
2022-12-09T02:47:41.553Z,-0.60
2022-12-09T02:52:47.830Z,-0.50
2022-12-09T02:57:57.729Z,-0.40
2022-12-09T03:03:03.802Z,-0.40
2022-12-09T03:08:05.729Z,-0.40
2022-12-09T03:13:18.287Z,-0.40
2022-12-09T03:18:22.322Z,-0.40
2022-12-09T03:23:26.809Z,-0.40
2022-12-09T03:28:33.543Z,-0.40
2022-12-09T03:33:35.544Z,-0.40
2022-12-09T03:38:42.107Z,-0.40
2022-12-09T03:43:52.340Z,-0.30
2022-12-09T03:48:54.266Z,-0.20
2022-12-09T03:54:30.965Z,-0.20
2022-12-09T03:59:35.995Z,-0.20
2022-12-09T04:04:42.268Z,-0.10
2022-12-09T04:09:44.623Z,-0.20
2022-12-09T04:14:46.539Z,-0.10
2022-12-09T04:19:48.598Z,-0.10
2022-12-09T04:24:50.371Z,-0.10
2022-12-09T04:29:52.110Z,0.00
2022-12-09T04:34:54.308Z,0.00
2022-12-09T04:39:56.355Z,0.00
2022-12-09T04:44:58.138Z,0.00
2022-12-09T04:50:00.624Z,0.00
2022-12-09T04:55:02.711Z,0.10
2022-12-09T05:00:07.317Z,0.10
2022-12-09T05:05:09.857Z,0.10
2022-12-09T05:10:12.121Z,0.00
2022-12-09T05:15:14.623Z,-0.10
2022-12-09T05:20:17.099Z,0.00
2022-12-09T05:25:19.237Z,0.00
2022-12-09T05:30:21.259Z,-0.10
2022-12-09T05:35:23.210Z,0.00
2022-12-09T05:40:25.407Z,0.00
2022-12-09T05:45:27.398Z,0.10
2022-12-09T05:50:29.608Z,0.10
2022-12-09T05:55:32.745Z,0.10
2022-12-09T06:00:34.684Z,0.20
2022-12-09T06:05:37.713Z,0.20
2022-12-09T06:10:41.336Z,0.20
2022-12-09T06:15:43.779Z,0.00
2022-12-09T06:20:46.638Z,0.00
2022-12-09T06:25:48.532Z,0.00
2022-12-09T06:30:50.624Z,0.00
2022-12-09T06:35:52.785Z,0.00
2022-12-09T06:40:55.324Z,-0.10
2022-12-09T06:45:57.187Z,-0.20
2022-12-09T06:50:59.858Z,-0.10
2022-12-09T06:56:11.488Z,-0.10
2022-12-09T07:01:23.093Z,-0.20
2022-12-09T07:06:33.650Z,-0.30
2022-12-09T07:11:36.819Z,-0.20
2022-12-09T07:16:39.374Z,-0.30
2022-12-09T07:21:41.256Z,-0.30
2022-12-09T07:26:43.384Z,-0.30
2022-12-09T07:31:45.585Z,-0.30
2022-12-09T07:36:47.523Z,-0.20
2022-12-09T07:41:57.750Z,-0.10
2022-12-09T07:47:04.134Z,-0.10
2022-12-09T07:52:06.397Z,0.00
2022-12-09T07:57:08.749Z,0.10
2022-12-09T08:02:10.663Z,0.20
2022-12-09T08:07:13.881Z,0.20
2022-12-09T08:12:15.940Z,0.30
2022-12-09T08:17:18.581Z,0.40
2022-12-09T08:22:23.654Z,0.50
2022-12-09T08:27:26.035Z,0.40
2022-12-09T08:32:28.087Z,0.50
2022-12-09T08:37:30.472Z,0.50
2022-12-09T08:42:32.409Z,0.60
2022-12-09T08:47:34.698Z,0.50
2022-12-09T08:52:40.513Z,0.40
2022-12-09T08:57:43.224Z,0.40
2022-12-09T09:02:45.708Z,0.40
2022-12-09T09:07:47.868Z,0.50
2022-12-09T09:12:50.023Z,0.50
2022-12-09T09:17:53.539Z,0.60
2022-12-09T09:23:02.608Z,0.60
2022-12-09T09:28:05.087Z,0.70
2022-12-09T09:33:08.687Z,0.80
2022-12-09T09:38:10.754Z,0.90
2022-12-09T09:43:18.256Z,0.90
2022-12-09T09:48:23.958Z,0.90
2022-12-09T09:53:30.872Z,0.90
2022-12-09T09:59:08.822Z,0.90
2022-12-09T10:04:46.132Z,1.00
2022-12-09T10:09:57.657Z,1.00
2022-12-09T10:15:41.276Z,1.00
2022-12-09T10:20:45.912Z,1.00
2022-12-09T10:25:52.828Z,1.00
2022-12-09T10:30:55.962Z,1.00
2022-12-09T10:36:00.107Z,1.00
2022-12-09T10:41:12.476Z,1.10
2022-12-09T10:46:22.083Z,1.10
2022-12-09T10:51:32.015Z,1.10
2022-12-09T10:56:37.751Z,1.10
2022-12-09T11:01:53.853Z,1.10
2022-12-09T11:07:03.295Z,1.20
2022-12-09T11:12:08.067Z,1.20
2022-12-09T11:17:24.288Z,1.20
2022-12-09T11:22:40.234Z,1.20
2022-12-09T11:27:51.525Z,1.20
2022-12-09T11:33:21.256Z,1.20
2022-12-09T11:38:42.337Z,1.30
2022-12-09T11:43:44.129Z,1.20
2022-12-09T11:48:56.757Z,1.30
2022-12-09T11:54:13.410Z,1.30
2022-12-09T11:59:34.769Z,1.30
2022-12-09T12:04:51.312Z,1.30
2022-12-09T12:09:56.310Z,1.40
2022-12-09T12:15:09.599Z,1.40
2022-12-09T12:20:13.224Z,1.50
2022-12-09T12:26:08.261Z,1.60
2022-12-09T12:31:37.401Z,1.60
2022-12-09T12:36:47.959Z,1.70
2022-12-09T12:42:26.442Z,1.60
2022-12-09T12:47:43.682Z,1.60
2022-12-09T12:53:00.806Z,1.60
2022-12-09T12:58:16.763Z,1.60
2022-12-09T13:03:31.524Z,1.60
2022-12-09T13:08:43.639Z,1.70
2022-12-09T13:13:54.227Z,1.70
2022-12-09T13:19:22.320Z,1.80
2022-12-09T13:24:42.240Z,1.80
2022-12-09T13:29:55.694Z,1.70
2022-12-09T13:35:13.722Z,1.70
2022-12-09T13:40:21.586Z,1.70
2022-12-09T13:45:36.162Z,1.70
2022-12-09T13:50:42.333Z,1.70
2022-12-09T13:56:04.491Z,1.70
2022-12-09T14:01:12.319Z,1.70
2022-12-09T14:06:27.493Z,1.70
2022-12-09T14:11:42.841Z,1.60
2022-12-09T14:16:44.680Z,1.60
2022-12-09T14:22:19.171Z,1.70
2022-12-09T14:27:31.767Z,1.70
2022-12-09T14:32:53.114Z,1.70
2022-12-09T14:38:27.436Z,1.60
2022-12-09T14:44:00.470Z,1.70
2022-12-09T14:49:21.008Z,1.60
2022-12-09T14:54:47.385Z,1.60
2022-12-09T14:59:52.411Z,1.60
2022-12-09T15:04:55.035Z,1.60
2022-12-09T15:10:08.001Z,1.50
2022-12-09T15:15:10.259Z,1.30
2022-12-09T15:20:27.684Z,1.30
2022-12-09T15:25:29.950Z,1.30
2022-12-09T15:30:37.190Z,1.30
2022-12-09T15:35:39.064Z,1.20
2022-12-09T15:41:03.644Z,1.10
2022-12-09T15:46:06.101Z,1.20
2022-12-09T15:51:15.798Z,1.20
2022-12-09T15:56:33.954Z,1.20
2022-12-09T16:01:36.824Z,1.20
2022-12-09T16:06:38.684Z,1.20
2022-12-09T16:11:46.130Z,1.20
2022-12-09T16:16:51.708Z,1.20
2022-12-09T16:21:59.928Z,1.20
2022-12-09T16:27:05.391Z,1.20
2022-12-09T16:32:16.291Z,1.00
2022-12-09T16:37:43.581Z,1.00
2022-12-09T16:42:45.588Z,1.00
2022-12-09T16:47:47.822Z,1.00
2022-12-09T16:52:49.986Z,1.10
2022-12-09T16:57:52.090Z,1.10
2022-12-09T17:03:26.871Z,1.00
2022-12-09T17:08:28.739Z,1.00
2022-12-09T17:13:30.913Z,1.10
2022-12-09T17:18:32.707Z,1.00
2022-12-09T17:23:39.605Z,1.00
2022-12-09T17:28:43.358Z,1.00
2022-12-09T17:33:45.435Z,1.00
2022-12-09T17:38:47.482Z,1.00
2022-12-09T17:43:49.438Z,1.00
2022-12-09T17:48:51.248Z,0.90
2022-12-09T17:53:53.078Z,1.00
2022-12-09T17:58:59.774Z,1.00
2022-12-09T18:04:07.896Z,1.00
2022-12-09T18:09:13.199Z,1.00
2022-12-09T18:14:16.209Z,1.10
2022-12-09T18:19:20.244Z,1.00
2022-12-09T18:24:22.210Z,1.00
2022-12-09T18:29:24.798Z,0.90
2022-12-09T18:34:28.114Z,0.90
2022-12-09T18:39:29.938Z,0.90
2022-12-09T18:44:31.692Z,0.90
2022-12-09T18:49:33.786Z,1.00
2022-12-09T18:54:36.559Z,0.90
2022-12-09T18:59:38.290Z,0.90
2022-12-09T19:04:40.029Z,0.90
2022-12-09T19:09:42.082Z,1.00
2022-12-09T19:14:43.835Z,0.90
2022-12-09T19:19:47.256Z,0.90
2022-12-09T19:24:49.048Z,0.90
2022-12-09T19:29:50.834Z,1.00
2022-12-09T19:34:52.900Z,0.90
2022-12-09T19:39:54.641Z,0.90
2022-12-09T19:45:06.443Z,0.90
2022-12-09T19:50:10.114Z,0.90
2022-12-09T19:55:13.423Z,1.00
2022-12-09T20:00:15.652Z,1.00
2022-12-09T20:05:18.103Z,1.00
2022-12-09T20:10:19.850Z,1.00
2022-12-09T20:15:21.598Z,1.00
2022-12-09T20:20:23.423Z,1.00
2022-12-09T20:25:25.186Z,1.00
2022-12-09T20:30:28.119Z,1.00
2022-12-09T20:35:29.920Z,1.00
2022-12-09T20:40:32.750Z,1.00
2022-12-09T20:45:39.166Z,0.90
2022-12-09T20:50:41.030Z,0.90
2022-12-09T20:55:42.775Z,0.70
2022-12-09T21:00:44.538Z,0.80
2022-12-09T21:05:47.036Z,0.80
2022-12-09T21:10:49.002Z,0.80
2022-12-09T21:15:50.840Z,0.80
2022-12-09T21:20:55.922Z,0.70
2022-12-09T21:26:04.640Z,0.70
2022-12-09T21:31:17.470Z,0.80
2022-12-09T21:36:23.464Z,0.80
2022-12-09T21:41:28.177Z,0.80
2022-12-09T21:46:34.940Z,0.80
2022-12-09T21:51:36.751Z,0.80
2022-12-09T21:56:38.548Z,0.90
2022-12-09T22:01:41.917Z,0.90
2022-12-09T22:06:49.135Z,0.90
2022-12-09T22:11:50.919Z,1.00
2022-12-09T22:16:52.946Z,0.90
2022-12-09T22:21:54.795Z,1.00
2022-12-09T22:26:56.651Z,1.00
2022-12-09T22:31:58.379Z,1.00
2022-12-09T22:37:14.913Z,0.90
2022-12-09T22:42:22.084Z,0.90
2022-12-09T22:47:23.986Z,0.90
2022-12-09T22:52:25.743Z,1.00
2022-12-09T22:57:27.617Z,1.00
2022-12-09T23:02:29.435Z,1.00
2022-12-09T23:07:31.246Z,1.00
2022-12-09T23:12:33.020Z,1.00
2022-12-09T23:17:34.846Z,1.00
2022-12-09T23:22:37.740Z,1.00
2022-12-09T23:27:39.590Z,1.00
2022-12-09T23:32:41.454Z,1.00
2022-12-09T23:37:43.196Z,0.90
2022-12-09T23:42:44.942Z,0.90
2022-12-09T23:47:46.992Z,0.80
2022-12-09T23:52:48.843Z,0.90
2022-12-09T23:57:50.585Z,0.90
